sensor_id;sensor_type;location;lat;lon;timestamp;pressure;altitude;pressure_sealevel;temperature;humidity
10135;BME280;5107;48.850;8.924;2023-02-13T00:00:14;98669.47;;;2.26;93.38
10135;BME280;5107;48.850;8.924;2023-02-13T00:02:42;98667.31;;;2.17;93.23
10135;BME280;5107;48.850;8.924;2023-02-13T00:05:09;98665.81;;;2.11;92.95
10135;BME280;5107;48.850;8.924;2023-02-13T00:07:38;98665.97;;;2.08;92.97
10135;BME280;5107;48.850;8.924;2023-02-13T00:10:06;98665.97;;;2.08;93.21
10135;BME280;5107;48.850;8.924;2023-02-13T00:12:34;98663.38;;;2.08;92.83
10135;BME280;5107;48.850;8.924;2023-02-13T00:15:01;98660.63;;;2.11;92.62
10135;BME280;5107;48.850;8.924;2023-02-13T00:17:29;98650.22;;;2.11;92.77
10135;BME280;5107;48.850;8.924;2023-02-13T00:19:56;98657.13;;;2.12;92.64
10135;BME280;5107;48.850;8.924;2023-02-13T00:22:23;98653.69;;;2.12;91.94
10135;BME280;5107;48.850;8.924;2023-02-13T00:24:51;98657.69;;;2.00;91.44
10135;BME280;5107;48.850;8.924;2023-02-13T00:27:19;98656.13;;;1.96;91.78
10135;BME280;5107;48.850;8.924;2023-02-13T00:29:46;98658.00;;;1.92;91.29
10135;BME280;5107;48.850;8.924;2023-02-13T00:32:13;98647.88;;;1.86;91.65
10135;BME280;5107;48.850;8.924;2023-02-13T00:34:41;98650.75;;;1.80;90.91
10135;BME280;5107;48.850;8.924;2023-02-13T00:37:09;98651.09;;;1.73;91.04
10135;BME280;5107;48.850;8.924;2023-02-13T00:39:36;98656.28;;;1.73;91.00
10135;BME280;5107;48.850;8.924;2023-02-13T00:42:04;98659.91;;;1.69;92.07
10135;BME280;5107;48.850;8.924;2023-02-13T00:44:32;98656.34;;;1.71;93.87
10135;BME280;5107;48.850;8.924;2023-02-13T00:47:00;98659.72;;;1.73;94.53
10135;BME280;5107;48.850;8.924;2023-02-13T00:49:27;98663.09;;;1.75;94.48
10135;BME280;5107;48.850;8.924;2023-02-13T00:51:54;98657.75;;;1.78;93.83
10135;BME280;5107;48.850;8.924;2023-02-13T00:54:21;98662.88;;;1.80;93.60
10135;BME280;5107;48.850;8.924;2023-02-13T00:56:49;98659.66;;;1.75;94.07
10135;BME280;5107;48.850;8.924;2023-02-13T00:59:17;98650.19;;;1.74;93.70
10135;BME280;5107;48.850;8.924;2023-02-13T01:01:44;98660.19;;;1.63;94.08
10135;BME280;5107;48.850;8.924;2023-02-13T01:04:11;98660.41;;;1.58;94.97
10135;BME280;5107;48.850;8.924;2023-02-13T01:06:38;98659.78;;;1.51;95.05
10135;BME280;5107;48.850;8.924;2023-02-13T01:09:05;98651.94;;;1.53;95.38
10135;BME280;5107;48.850;8.924;2023-02-13T01:11:35;98660.47;;;1.57;96.68
10135;BME280;5107;48.850;8.924;2023-02-13T01:14:02;98661.88;;;1.64;96.60
10135;BME280;5107;48.850;8.924;2023-02-13T01:16:30;98652.41;;;1.63;96.64
10135;BME280;5107;48.850;8.924;2023-02-13T01:18:57;98655.13;;;1.60;96.98
10135;BME280;5107;48.850;8.924;2023-02-13T01:21:24;98649.09;;;1.59;97.17
10135;BME280;5107;48.850;8.924;2023-02-13T01:23:52;98641.06;;;1.65;96.92
10135;BME280;5107;48.850;8.924;2023-02-13T01:26:21;98646.88;;;1.70;98.32
10135;BME280;5107;48.850;8.924;2023-02-13T01:28:52;98643.75;;;1.82;99.54
10135;BME280;5107;48.850;8.924;2023-02-13T01:31:20;98643.59;;;1.85;99.25
10135;BME280;5107;48.850;8.924;2023-02-13T01:33:51;98644.38;;;1.87;99.10
10135;BME280;5107;48.850;8.924;2023-02-13T01:36:21;98643.47;;;1.88;98.50
10135;BME280;5107;48.850;8.924;2023-02-13T01:38:51;98639.13;;;1.89;98.80
10135;BME280;5107;48.850;8.924;2023-02-13T01:41:18;98642.75;;;1.85;98.16
10135;BME280;5107;48.850;8.924;2023-02-13T01:43:49;98642.97;;;1.80;97.90
10135;BME280;5107;48.850;8.924;2023-02-13T01:46:22;98638.81;;;1.76;98.07
10135;BME280;5107;48.850;8.924;2023-02-13T01:48:54;98634.56;;;1.75;98.24
10135;BME280;5107;48.850;8.924;2023-02-13T01:51:26;98643.31;;;1.73;97.92
10135;BME280;5107;48.850;8.924;2023-02-13T01:53:59;98649.34;;;1.73;98.12
10135;BME280;5107;48.850;8.924;2023-02-13T01:56:31;98640.78;;;1.71;97.25
10135;BME280;5107;48.850;8.924;2023-02-13T01:59:09;98640.16;;;1.66;97.38
10135;BME280;5107;48.850;8.924;2023-02-13T02:01:38;98640.78;;;1.71;97.40
10135;BME280;5107;48.850;8.924;2023-02-13T02:04:12;98649.63;;;1.67;97.52
10135;BME280;5107;48.850;8.924;2023-02-13T02:06:45;98654.94;;;1.64;97.58
10135;BME280;5107;48.850;8.924;2023-02-13T02:09:27;98643.25;;;1.54;97.07
10135;BME280;5107;48.850;8.924;2023-02-13T02:12:07;98643.47;;;1.49;97.82
10135;BME280;5107;48.850;8.924;2023-02-13T02:14:39;98643.53;;;1.48;98.20
10135;BME280;5107;48.850;8.924;2023-02-13T02:17:09;98637.63;;;1.44;98.66
10135;BME280;5107;48.850;8.924;2023-02-13T02:19:43;98641.97;;;1.44;98.25
10135;BME280;5107;48.850;8.924;2023-02-13T02:23:04;98635.09;;;1.43;98.71
10135;BME280;5107;48.850;8.924;2023-02-13T02:26:15;98637.06;;;1.38;98.42
10135;BME280;5107;48.850;8.924;2023-02-13T02:29:27;98643.97;;;1.37;98.91
10135;BME280;5107;48.850;8.924;2023-02-13T02:32:13;98637.06;;;1.38;99.21
10135;BME280;5107;48.850;8.924;2023-02-13T02:34:54;98629.38;;;1.35;99.13
10135;BME280;5107;48.850;8.924;2023-02-13T02:37:50;98638.00;;;1.35;99.47
10135;BME280;5107;48.850;8.924;2023-02-13T02:40:35;98635.63;;;1.31;99.10
10135;BME280;5107;48.850;8.924;2023-02-13T02:43:18;98628.75;;;1.30;99.04
10135;BME280;5107;48.850;8.924;2023-02-13T02:45:55;98625.38;;;1.28;98.80
10135;BME280;5107;48.850;8.924;2023-02-13T02:48:32;98625.38;;;1.28;99.18
10135;BME280;5107;48.850;8.924;2023-02-13T02:51:31;98623.69;;;1.27;99.43
10135;BME280;5107;48.850;8.924;2023-02-13T02:54:06;98628.75;;;1.30;99.93
10135;BME280;5107;48.850;8.924;2023-02-13T02:57:00;98631.22;;;1.33;99.94
10135;BME280;5107;48.850;8.924;2023-02-13T02:59:30;98626.09;;;1.31;99.41
10135;BME280;5107;48.850;8.924;2023-02-13T03:02:17;98630.72;;;1.25;98.98
10135;BME280;5107;48.850;8.924;2023-02-13T03:05:03;98622.84;;;1.26;99.53
10135;BME280;5107;48.850;8.924;2023-02-13T03:08:02;98627.84;;;1.31;100.00
10135;BME280;5107;48.850;8.924;2023-02-13T03:10:34;98624.34;;;1.32;100.00
10135;BME280;5107;48.850;8.924;2023-02-13T03:13:38;98628.81;;;1.28;100.00
10135;BME280;5107;48.850;8.924;2023-02-13T03:16:09;98634.00;;;1.28;100.00
10135;BME280;5107;48.850;8.924;2023-02-13T03:18:57;98632.38;;;1.26;99.94
10135;BME280;5107;48.850;8.924;2023-02-13T03:21:49;98634.31;;;1.21;99.71
10135;BME280;5107;48.850;8.924;2023-02-13T03:24:46;98644.16;;;1.12;99.02
10135;BME280;5107;48.850;8.924;2023-02-13T03:27:29;98640.03;;;1.08;99.08
10135;BME280;5107;48.850;8.924;2023-02-13T03:30:25;98631.59;;;1.03;99.21
10135;BME280;5107;48.850;8.924;2023-02-13T03:33:09;98633.28;;;1.04;99.50
10135;BME280;5107;48.850;8.924;2023-02-13T03:35:44;98629.91;;;1.02;99.80
10135;BME280;5107;48.850;8.924;2023-02-13T03:38:40;98630.75;;;1.03;99.70
10135;BME280;5107;48.850;8.924;2023-02-13T03:41:13;98638.50;;;1.03;100.00
10135;BME280;5107;48.850;8.924;2023-02-13T03:43:59;98643.63;;;1.04;100.00
10135;BME280;5107;48.850;8.924;2023-02-13T03:46:33;98641.69;;;1.09;100.00
10135;BME280;5107;48.850;8.924;2023-02-13T03:49:05;98637.03;;;1.18;100.00
10135;BME280;5107;48.850;8.924;2023-02-13T03:51:55;98642.81;;;1.24;100.00
10135;BME280;5107;48.850;8.924;2023-02-13T03:54:31;98642.63;;;1.29;100.00
10135;BME280;5107;48.850;8.924;2023-02-13T03:57:19;98649.50;;;1.30;100.00
10135;BME280;5107;48.850;8.924;2023-02-13T04:00:11;98652.03;;;1.31;100.00
10135;BME280;5107;48.850;8.924;2023-02-13T04:02:48;98651.97;;;1.33;100.00
10135;BME280;5107;48.850;8.924;2023-02-13T04:05:21;98661.50;;;1.32;100.00
10135;BME280;5107;48.850;8.924;2023-02-13T04:07:50;98664.16;;;1.31;99.82
10135;BME280;5107;48.850;8.924;2023-02-13T04:10:19;98671.13;;;1.29;99.44
10135;BME280;5107;48.850;8.924;2023-02-13T04:12:56;98668.50;;;1.30;99.92
10135;BME280;5107;48.850;8.924;2023-02-13T04:15:31;98674.56;;;1.29;99.52
10135;BME280;5107;48.850;8.924;2023-02-13T04:18:07;98670.50;;;1.24;99.01
10135;BME280;5107;48.850;8.924;2023-02-13T04:20:37;98670.63;;;1.21;98.89
10135;BME280;5107;48.850;8.924;2023-02-13T04:23:07;98668.03;;;1.21;98.39
10135;BME280;5107;48.850;8.924;2023-02-13T04:25:39;98672.41;;;1.19;98.24
10135;BME280;5107;48.850;8.924;2023-02-13T04:28:07;98669.19;;;1.13;98.46
10135;BME280;5107;48.850;8.924;2023-02-13T04:30:34;98668.34;;;1.13;98.31
10135;BME280;5107;48.850;8.924;2023-02-13T04:33:01;98673.47;;;1.14;98.42
10135;BME280;5107;48.850;8.924;2023-02-13T04:35:29;98673.31;;;1.18;98.70
10135;BME280;5107;48.850;8.924;2023-02-13T04:37:56;98669.91;;;1.17;98.59
10135;BME280;5107;48.850;8.924;2023-02-13T04:40:23;98674.31;;;1.15;98.55
10135;BME280;5107;48.850;8.924;2023-02-13T04:42:51;98668.22;;;1.16;98.56
10135;BME280;5107;48.850;8.924;2023-02-13T04:45:18;98672.56;;;1.16;98.44
10135;BME280;5107;48.850;8.924;2023-02-13T04:47:49;98675.00;;;1.19;98.56
10135;BME280;5107;48.850;8.924;2023-02-13T04:50:17;98673.25;;;1.19;98.33
10135;BME280;5107;48.850;8.924;2023-02-13T04:52:44;98681.03;;;1.19;97.83
10135;BME280;5107;48.850;8.924;2023-02-13T04:55:12;98677.97;;;1.09;97.47
10135;BME280;5107;48.850;8.924;2023-02-13T04:57:39;98675.78;;;1.00;97.85
10135;BME280;5107;48.850;8.924;2023-02-13T05:00:09;98675.84;;;0.99;98.02
10135;BME280;5107;48.850;8.924;2023-02-13T05:02:37;98673.19;;;1.00;98.57
10135;BME280;5107;48.850;8.924;2023-02-13T05:05:05;98668.72;;;1.04;98.25
10135;BME280;5107;48.850;8.924;2023-02-13T05:07:32;98674.31;;;0.93;97.45
10135;BME280;5107;48.850;8.924;2023-02-13T05:09:59;98675.47;;;0.86;97.01
10135;BME280;5107;48.850;8.924;2023-02-13T05:12:26;98672.41;;;0.76;96.77
10135;BME280;5107;48.850;8.924;2023-02-13T05:14:53;98673.59;;;0.68;96.58
10135;BME280;5107;48.850;8.924;2023-02-13T05:17:21;98675.44;;;0.66;96.51
10135;BME280;5107;48.850;8.924;2023-02-13T05:19:48;98673.84;;;0.62;96.68
10135;BME280;5107;48.850;8.924;2023-02-13T05:22:15;98674.03;;;0.57;97.31
10135;BME280;5107;48.850;8.924;2023-02-13T05:24:59;98668.91;;;0.56;97.82
10135;BME280;5107;48.850;8.924;2023-02-13T05:27:26;98673.19;;;0.57;98.53
10135;BME280;5107;48.850;8.924;2023-02-13T05:29:53;98670.59;;;0.57;99.10
10135;BME280;5107;48.850;8.924;2023-02-13T05:32:20;98678.00;;;0.66;99.24
10135;BME280;5107;48.850;8.924;2023-02-13T05:34:47;98671.09;;;0.66;98.48
10135;BME280;5107;48.850;8.924;2023-02-13T05:37:14;98683.31;;;0.63;97.46
10135;BME280;5107;48.850;8.924;2023-02-13T05:39:41;98675.72;;;0.58;97.63
10135;BME280;5107;48.850;8.924;2023-02-13T05:42:09;98674.19;;;0.53;97.14
10135;BME280;5107;48.850;8.924;2023-02-13T05:44:36;98676.97;;;0.48;96.55
10135;BME280;5107;48.850;8.924;2023-02-13T05:47:03;98676.53;;;0.37;96.20
10135;BME280;5107;48.850;8.924;2023-02-13T05:49:31;98674.47;;;0.23;96.13
10135;BME280;5107;48.850;8.924;2023-02-13T05:51:58;98670.28;;;0.19;96.50
10135;BME280;5107;48.850;8.924;2023-02-13T05:54:25;98672.16;;;0.16;96.88
10135;BME280;5107;48.850;8.924;2023-02-13T05:56:52;98667.00;;;0.16;97.29
10135;BME280;5107;48.850;8.924;2023-02-13T05:59:19;98666.00;;;0.18;98.07
10135;BME280;5107;48.850;8.924;2023-02-13T06:01:46;98665.06;;;0.21;98.88
10135;BME280;5107;48.850;8.924;2023-02-13T06:04:13;98672.78;;;0.22;99.06
10135;BME280;5107;48.850;8.924;2023-02-13T06:06:42;98665.00;;;0.22;99.00
10135;BME280;5107;48.850;8.924;2023-02-13T06:09:10;98669.25;;;0.25;98.85
10135;BME280;5107;48.850;8.924;2023-02-13T06:11:37;98669.84;;;0.31;98.49
10135;BME280;5107;48.850;8.924;2023-02-13T06:14:04;98663.59;;;0.37;98.66
10135;BME280;5107;48.850;8.924;2023-02-13T06:16:31;98670.25;;;0.43;99.74
10135;BME280;5107;48.850;8.924;2023-02-13T06:18:59;98662.63;;;0.40;99.80
10135;BME280;5107;48.850;8.924;2023-02-13T06:21:26;98673.00;;;0.40;99.33
10135;BME280;5107;48.850;8.924;2023-02-13T06:23:54;98666.84;;;0.42;100.00
10135;BME280;5107;48.850;8.924;2023-02-13T06:26:21;98661.59;;;0.44;100.00
10135;BME280;5107;48.850;8.924;2023-02-13T06:28:48;98670.22;;;0.44;99.85
10135;BME280;5107;48.850;8.924;2023-02-13T06:31:16;98671.00;;;0.46;99.88
10135;BME280;5107;48.850;8.924;2023-02-13T06:33:43;98673.41;;;0.51;99.75
10135;BME280;5107;48.850;8.924;2023-02-13T06:36:10;98663.47;;;0.62;99.93
10135;BME280;5107;48.850;8.924;2023-02-13T06:38:37;98661.31;;;0.73;99.73
10135;BME280;5107;48.850;8.924;2023-02-13T06:41:05;98665.47;;;1.41;100.00
10135;BME280;5107;48.850;8.924;2023-02-13T06:43:32;98662.25;;;1.75;100.00
10135;BME280;5107;48.850;8.924;2023-02-13T06:46:03;98662.91;;;1.60;100.00
10135;BME280;5107;48.850;8.924;2023-02-13T06:48:31;98663.75;;;1.40;99.46
10135;BME280;5107;48.850;8.924;2023-02-13T06:50:58;98657.91;;;1.35;98.49
10135;BME280;5107;48.850;8.924;2023-02-13T06:53:26;98658.19;;;1.29;96.83
10135;BME280;5107;48.850;8.924;2023-02-13T06:55:54;98654.81;;;1.67;100.00
10135;BME280;5107;48.850;8.924;2023-02-13T06:58:24;98659.56;;;1.97;100.00
10135;BME280;5107;48.850;8.924;2023-02-13T07:00:52;98673.47;;;2.14;99.24
10135;BME280;5107;48.850;8.924;2023-02-13T07:03:22;98673.97;;;2.41;97.91
10135;BME280;5107;48.850;8.924;2023-02-13T07:05:49;98668.44;;;2.85;97.52
10135;BME280;5107;48.850;8.924;2023-02-13T07:08:17;98673.25;;;3.28;96.49
10135;BME280;5107;48.850;8.924;2023-02-13T07:10:44;98683.97;;;3.74;93.80
10135;BME280;5107;48.850;8.924;2023-02-13T07:13:12;98681.09;;;3.96;87.69
10135;BME280;5107;48.850;8.924;2023-02-13T07:15:40;98683.28;;;4.03;83.71
10135;BME280;5107;48.850;8.924;2023-02-13T07:18:08;98683.41;;;4.17;81.91
10135;BME280;5107;48.850;8.924;2023-02-13T07:20:35;98683.09;;;4.24;80.21
10135;BME280;5107;48.850;8.924;2023-02-13T07:23:04;98687.38;;;4.25;78.72
10135;BME280;5107;48.850;8.924;2023-02-13T07:25:32;98688.25;;;4.56;79.51
10135;BME280;5107;48.850;8.924;2023-02-13T07:28:04;98688.00;;;4.92;78.74
10135;BME280;5107;48.850;8.924;2023-02-13T07:30:33;98694.09;;;5.23;77.22
10135;BME280;5107;48.850;8.924;2023-02-13T07:33:03;98695.00;;;5.67;76.01
10135;BME280;5107;48.850;8.924;2023-02-13T07:35:30;98682.84;;;5.52;74.33
10135;BME280;5107;48.850;8.924;2023-02-13T07:37:58;98693.88;;;5.71;73.66
10135;BME280;5107;48.850;8.924;2023-02-13T07:40:26;98692.56;;;5.79;78.19
10135;BME280;5107;48.850;8.924;2023-02-13T07:42:53;98690.50;;;6.56;80.60
10135;BME280;5107;48.850;8.924;2023-02-13T07:45:20;98692.25;;;7.11;71.99
10135;BME280;5107;48.850;8.924;2023-02-13T07:47:47;98693.13;;;7.37;67.65
10135;BME280;5107;48.850;8.924;2023-02-13T07:50:16;98692.13;;;7.12;68.52
10135;BME280;5107;48.850;8.924;2023-02-13T07:52:43;98689.50;;;7.39;70.37
10135;BME280;5107;48.850;8.924;2023-02-13T07:55:10;98691.03;;;7.29;67.35
10135;BME280;5107;48.850;8.924;2023-02-13T07:57:37;98685.31;;;6.83;68.33
10135;BME280;5107;48.850;8.924;2023-02-13T08:00:06;98688.72;;;6.28;70.58
10135;BME280;5107;48.850;8.924;2023-02-13T08:02:37;98684.91;;;5.91;72.45
10135;BME280;5107;48.850;8.924;2023-02-13T08:05:06;98685.53;;;5.95;73.49
10135;BME280;5107;48.850;8.924;2023-02-13T08:07:34;98675.75;;;6.13;73.03
10135;BME280;5107;48.850;8.924;2023-02-13T08:10:02;98677.13;;;6.46;72.69
10135;BME280;5107;48.850;8.924;2023-02-13T08:12:47;98673.91;;;6.70;70.50
10135;BME280;5107;48.850;8.924;2023-02-13T08:15:15;98677.63;;;6.80;69.79
10135;BME280;5107;48.850;8.924;2023-02-13T08:17:42;98675.63;;;6.98;69.28
10135;BME280;5107;48.850;8.924;2023-02-13T08:20:10;98677.66;;;7.34;67.86
10135;BME280;5107;48.850;8.924;2023-02-13T08:22:39;98682.75;;;7.75;66.41
10135;BME280;5107;48.850;8.924;2023-02-13T08:25:07;98680.66;;;7.67;67.10
10135;BME280;5107;48.850;8.924;2023-02-13T08:27:34;98674.91;;;7.87;68.44
10135;BME280;5107;48.850;8.924;2023-02-13T08:30:02;98674.50;;;8.31;64.62
10135;BME280;5107;48.850;8.924;2023-02-13T08:32:30;98682.38;;;7.93;65.77
10135;BME280;5107;48.850;8.924;2023-02-13T08:34:57;98684.22;;;8.55;63.08
10135;BME280;5107;48.850;8.924;2023-02-13T08:37:24;98682.09;;;8.72;61.19
10135;BME280;5107;48.850;8.924;2023-02-13T08:39:52;98678.97;;;8.55;62.04
10135;BME280;5107;48.850;8.924;2023-02-13T08:42:19;98677.97;;;8.45;62.10
10135;BME280;5107;48.850;8.924;2023-02-13T08:44:47;98669.88;;;8.10;63.86
10135;BME280;5107;48.850;8.924;2023-02-13T08:47:14;98674.16;;;7.73;65.76
10135;BME280;5107;48.850;8.924;2023-02-13T08:49:41;98673.97;;;8.14;65.77
10135;BME280;5107;48.850;8.924;2023-02-13T08:52:08;98674.19;;;8.36;65.54
10135;BME280;5107;48.850;8.924;2023-02-13T08:54:35;98667.53;;;8.68;62.32
10135;BME280;5107;48.850;8.924;2023-02-13T08:57:04;98670.81;;;8.21;62.52
10135;BME280;5107;48.850;8.924;2023-02-13T08:59:31;98673.13;;;8.51;63.33
10135;BME280;5107;48.850;8.924;2023-02-13T09:01:58;98667.28;;;8.35;63.78
10135;BME280;5107;48.850;8.924;2023-02-13T09:04:25;98663.28;;;8.42;63.21
10135;BME280;5107;48.850;8.924;2023-02-13T09:06:53;98663.91;;;9.06;60.98
10135;BME280;5107;48.850;8.924;2023-02-13T09:09:20;98672.34;;;9.22;60.66
10135;BME280;5107;48.850;8.924;2023-02-13T09:11:47;98674.22;;;8.72;61.65
10135;BME280;5107;48.850;8.924;2023-02-13T09:14:17;98667.09;;;9.22;60.90
10135;BME280;5107;48.850;8.924;2023-02-13T09:16:44;98673.66;;;8.80;61.93
10135;BME280;5107;48.850;8.924;2023-02-13T09:19:11;98672.88;;;8.67;62.90
10135;BME280;5107;48.850;8.924;2023-02-13T09:21:38;98677.56;;;8.74;62.21
10135;BME280;5107;48.850;8.924;2023-02-13T09:24:06;98672.59;;;8.95;61.90
10135;BME280;5107;48.850;8.924;2023-02-13T09:26:33;98675.41;;;8.92;61.16
10135;BME280;5107;48.850;8.924;2023-02-13T09:29:01;98676.56;;;8.88;60.58
10135;BME280;5107;48.850;8.924;2023-02-13T09:31:29;98676.72;;;8.87;62.53
10135;BME280;5107;48.850;8.924;2023-02-13T09:33:56;98679.34;;;8.74;62.13
10135;BME280;5107;48.850;8.924;2023-02-13T09:36:23;98679.41;;;8.49;62.50
10135;BME280;5107;48.850;8.924;2023-02-13T09:38:52;98676.03;;;8.59;62.28
10135;BME280;5107;48.850;8.924;2023-02-13T09:41:23;98678.03;;;8.56;62.64
10135;BME280;5107;48.850;8.924;2023-02-13T09:43:55;98681.50;;;8.56;61.77
10135;BME280;5107;48.850;8.924;2023-02-13T09:46:30;98689.91;;;8.61;61.79
10135;BME280;5107;48.850;8.924;2023-02-13T09:49:04;98689.91;;;8.61;62.10
10135;BME280;5107;48.850;8.924;2023-02-13T09:51:32;98689.31;;;8.45;62.03
10135;BME280;5107;48.850;8.924;2023-02-13T09:54:03;98690.66;;;8.38;62.39
10135;BME280;5107;48.850;8.924;2023-02-13T09:56:46;98691.88;;;7.69;65.14
10135;BME280;5107;48.850;8.924;2023-02-13T09:59:36;98693.34;;;7.73;64.58
10135;BME280;5107;48.850;8.924;2023-02-13T10:02:24;98691.78;;;8.09;63.71
10135;BME280;5107;48.850;8.924;2023-02-13T10:05:04;98693.47;;;8.22;63.53
10135;BME280;5107;48.850;8.924;2023-02-13T10:07:41;98698.72;;;8.48;64.02
10135;BME280;5107;48.850;8.924;2023-02-13T10:10:20;98704.16;;;8.70;61.67
10135;BME280;5107;48.850;8.924;2023-02-13T10:13:03;98696.84;;;8.37;62.00
10135;BME280;5107;48.850;8.924;2023-02-13T10:15:37;98699.78;;;8.20;64.04
10135;BME280;5107;48.850;8.924;2023-02-13T10:18:12;98698.72;;;8.10;63.74
10135;BME280;5107;48.850;8.924;2023-02-13T10:20:45;98702.50;;;7.41;65.37
10135;BME280;5107;48.850;8.924;2023-02-13T10:23:23;98695.56;;;7.13;67.06
10135;BME280;5107;48.850;8.924;2023-02-13T10:25:56;98688.78;;;7.50;65.54
10135;BME280;5107;48.850;8.924;2023-02-13T10:28:33;98692.94;;;7.40;65.49
10135;BME280;5107;48.850;8.924;2023-02-13T10:31:05;98698.28;;;7.38;65.76
10135;BME280;5107;48.850;8.924;2023-02-13T10:33:53;98696.97;;;7.58;64.96
10135;BME280;5107;48.850;8.924;2023-02-13T10:36:25;98694.22;;;7.86;63.90
10135;BME280;5107;48.850;8.924;2023-02-13T10:38:59;98690.63;;;7.87;65.10
10135;BME280;5107;48.850;8.924;2023-02-13T10:41:39;98692.03;;;8.31;62.62
10135;BME280;5107;48.850;8.924;2023-02-13T10:44:32;98684.25;;;8.17;63.16
10135;BME280;5107;48.850;8.924;2023-02-13T10:47:15;98690.25;;;8.44;61.57
10135;BME280;5107;48.850;8.924;2023-02-13T10:50:05;98686.13;;;8.53;62.64
10135;BME280;5107;48.850;8.924;2023-02-13T10:52:49;98685.06;;;8.55;62.21
10135;BME280;5107;48.850;8.924;2023-02-13T10:55:30;98687.03;;;8.64;62.39
10135;BME280;5107;48.850;8.924;2023-02-13T10:58:11;98676.56;;;8.88;60.95
10135;BME280;5107;48.850;8.924;2023-02-13T11:00:45;98684.28;;;8.79;62.06
10135;BME280;5107;48.850;8.924;2023-02-13T11:03:18;98675.41;;;8.68;60.92
10135;BME280;5107;48.850;8.924;2023-02-13T11:05:49;98682.88;;;8.62;61.93
10135;BME280;5107;48.850;8.924;2023-02-13T11:08:21;98675.00;;;8.24;63.48
10135;BME280;5107;48.850;8.924;2023-02-13T11:10:49;98673.31;;;8.48;63.46
10135;BME280;5107;48.850;8.924;2023-02-13T11:13:19;98670.41;;;8.40;62.94
10135;BME280;5107;48.850;8.924;2023-02-13T11:16:02;98666.84;;;8.41;62.46
10135;BME280;5107;48.850;8.924;2023-02-13T11:18:32;98664.44;;;8.74;62.69
10135;BME280;5107;48.850;8.924;2023-02-13T11:21:07;98677.53;;;8.51;62.88
10135;BME280;5107;48.850;8.924;2023-02-13T11:23:43;98659.19;;;8.74;62.30
10135;BME280;5107;48.850;8.924;2023-02-13T11:26:13;98659.09;;;9.00;61.81
10135;BME280;5107;48.850;8.924;2023-02-13T11:28:49;98658.91;;;9.03;62.13
10135;BME280;5107;48.850;8.924;2023-02-13T11:31:27;98651.75;;;9.40;60.14
10135;BME280;5107;48.850;8.924;2023-02-13T11:33:55;98644.44;;;9.67;60.34
10135;BME280;5107;48.850;8.924;2023-02-13T11:36:27;98647.84;;;9.92;58.79
10135;BME280;5107;48.850;8.924;2023-02-13T11:39:00;98642.97;;;10.09;58.56
10135;BME280;5107;48.850;8.924;2023-02-13T11:41:29;98649.94;;;10.44;57.47
10135;BME280;5107;48.850;8.924;2023-02-13T11:43:59;98652.63;;;10.09;58.31
10135;BME280;5107;48.850;8.924;2023-02-13T11:46:28;98642.56;;;9.92;59.62
10135;BME280;5107;48.850;8.924;2023-02-13T11:48:59;98654.59;;;10.40;57.24
10135;BME280;5107;48.850;8.924;2023-02-13T11:51:44;98652.56;;;10.44;57.68
10135;BME280;5107;48.850;8.924;2023-02-13T11:54:31;98650.41;;;10.38;57.70
10135;BME280;5107;48.850;8.924;2023-02-13T11:57:01;98643.47;;;10.25;57.78
10135;BME280;5107;48.850;8.924;2023-02-13T11:59:39;98647.38;;;10.09;58.35
10135;BME280;5107;48.850;8.924;2023-02-13T12:02:17;98648.09;;;10.55;58.34
10135;BME280;5107;48.850;8.924;2023-02-13T12:04:45;98649.81;;;10.99;57.21
10135;BME280;5107;48.850;8.924;2023-02-13T12:07:22;98643.59;;;11.12;55.73
10135;BME280;5107;48.850;8.924;2023-02-13T12:09:56;98645.47;;;11.21;55.45
10135;BME280;5107;48.850;8.924;2023-02-13T12:12:33;98639.06;;;11.55;55.44
10135;BME280;5107;48.850;8.924;2023-02-13T12:15:16;98647.84;;;11.76;54.12
10135;BME280;5107;48.850;8.924;2023-02-13T12:17:45;98644.75;;;11.71;54.68
10135;BME280;5107;48.850;8.924;2023-02-13T12:20:14;98648.16;;;12.04;54.60
10135;BME280;5107;48.850;8.924;2023-02-13T12:22:58;98640.66;;;12.39;53.33
10135;BME280;5107;48.850;8.924;2023-02-13T12:25:57;98632.19;;;12.76;51.55
10135;BME280;5107;48.850;8.924;2023-02-13T12:29:17;98629.03;;;12.11;53.63
10135;BME280;5107;48.850;8.924;2023-02-13T12:32:10;98630.94;;;12.40;52.68
10135;BME280;5107;48.850;8.924;2023-02-13T12:38:02;98622.31;;;12.78;51.43
10135;BME280;5107;48.850;8.924;2023-02-13T12:40:55;98626.16;;;12.64;52.68
10135;BME280;5107;48.850;8.924;2023-02-13T12:44:01;98627.38;;;12.50;53.32
10135;BME280;5107;48.850;8.924;2023-02-13T12:46:36;98626.34;;;12.82;51.76
10135;BME280;5107;48.850;8.924;2023-02-13T12:49:25;98621.44;;;12.68;52.79
10135;BME280;5107;48.850;8.924;2023-02-13T12:52:09;98617.56;;;12.62;52.57
10135;BME280;5107;48.850;8.924;2023-02-13T12:54:53;98607.03;;;12.72;51.33
10135;BME280;5107;48.850;8.924;2023-02-13T12:57:38;98612.41;;;12.21;51.90
10135;BME280;5107;48.850;8.924;2023-02-13T13:00:33;98611.75;;;12.28;52.99
10135;BME280;5107;48.850;8.924;2023-02-13T13:03:26;98617.63;;;12.41;51.95
10135;BME280;5107;48.850;8.924;2023-02-13T13:06:12;98606.56;;;12.67;51.36
10135;BME280;5107;48.850;8.924;2023-02-13T13:09:30;98608.56;;;12.84;51.25
10135;BME280;5107;48.850;8.924;2023-02-13T13:12:23;98611.34;;;12.92;50.11
10135;BME280;5107;48.850;8.924;2023-02-13T13:14:59;98613.28;;;12.71;50.96
10135;BME280;5107;48.850;8.924;2023-02-13T13:17:52;98611.16;;;12.55;50.47
10135;BME280;5107;48.850;8.924;2023-02-13T13:20:51;98605.41;;;12.50;51.62
10135;BME280;5107;48.850;8.924;2023-02-13T13:23:26;98598.50;;;12.59;50.88
10135;BME280;5107;48.850;8.924;2023-02-13T13:26:06;98602.09;;;12.58;50.66
10135;BME280;5107;48.850;8.924;2023-02-13T13:28:41;98598.91;;;12.54;51.17
10135;BME280;5107;48.850;8.924;2023-02-13T13:31:09;98603.66;;;12.20;51.23
10135;BME280;5107;48.850;8.924;2023-02-13T13:33:42;98595.63;;;12.31;51.84
10135;BME280;5107;48.850;8.924;2023-02-13T13:36:18;98597.03;;;12.35;51.06
10135;BME280;5107;48.850;8.924;2023-02-13T13:38:56;98595.81;;;12.09;51.65
10135;BME280;5107;48.850;8.924;2023-02-13T13:41:34;98597.25;;;12.23;51.05
10135;BME280;5107;48.850;8.924;2023-02-13T13:44:38;98595.00;;;12.08;51.90
10135;BME280;5107;48.850;8.924;2023-02-13T13:47:22;98591.75;;;12.35;51.25
10135;BME280;5107;48.850;8.924;2023-02-13T13:49:52;98600.38;;;12.37;50.44
10135;BME280;5107;48.850;8.924;2023-02-13T13:52:25;98591.50;;;12.38;50.63
10135;BME280;5107;48.850;8.924;2023-02-13T13:54:54;98596.97;;;12.16;50.86
10135;BME280;5107;48.850;8.924;2023-02-13T13:57:22;98591.50;;;12.08;51.96